Armour, South Dakota
Current Conditions -  °F | °C
As of 12:27 PM on Thursday 30 Oct 2014 (Local Time) from KMHE Reporting Station
Broken Clouds Broken Clouds  
Wind Chill: 38°   Ceiling: 2000
Heat Index: 46°   Visibility: 10mi
Dew Point: 37°   Wind: 21mph
Humidity: 71%   Direction: 340°NNW
Pressure: 30.21"   Gusts: 29mph
Location:  43.32°N, 98.35°W
Report Text: KMHE 301727Z AUTO 34018G25KT 10SM BKN020 08/03 A3021 RMK AO2 PK WND 33029/1713 T00780028
Loading
Personal Weather Stations






























Interactive Weather Map
Tropical Storm Tracking
New forecast layout! Learn more

10-Day Weather Forecast

Advertisements
Track Severe Weather on mobile